createdAt,value
2018-10-11T00:08:22.438Z,21.07
2018-10-11T00:18:26.780Z,19.57
2018-10-11T00:28:31.356Z,19.60
2018-10-11T00:38:35.923Z,18.87
2018-10-11T00:48:40.486Z,19.83
2018-10-11T00:58:45.169Z,19.10
2018-10-11T03:07:03.419Z,16.37
2018-10-11T03:17:08.027Z,18.20
2018-10-11T03:27:12.598Z,17.13
2018-10-11T03:37:16.917Z,16.80
2018-10-11T03:47:21.544Z,16.10
2018-10-11T03:57:26.154Z,16.37
2018-10-11T04:07:30.793Z,15.30
2018-10-11T04:17:35.552Z,17.40
2018-10-11T04:27:40.054Z,16.70
2018-10-11T04:37:44.582Z,16.73
2018-10-11T04:47:49.085Z,16.73
2018-10-11T04:57:53.620Z,15.83
2018-10-11T05:07:58.307Z,15.67
2018-10-11T05:18:03.186Z,14.40
2018-10-11T05:28:07.758Z,15.57
2018-10-11T05:38:12.375Z,15.60
2018-10-11T05:48:17.101Z,15.90
2018-10-11T05:58:21.675Z,15.30
2018-10-11T06:08:26.557Z,14.10
2018-10-11T06:18:31.138Z,14.80
2018-10-11T06:28:35.628Z,14.60
2018-10-11T06:38:40.338Z,15.17
2018-10-11T06:48:45.053Z,14.53
2018-10-11T06:58:49.547Z,15.07
2018-10-11T07:08:54.118Z,14.23
2018-10-11T07:18:58.625Z,14.03
2018-10-11T07:29:03.211Z,13.53
2018-10-11T07:39:10.406Z,14.63
2018-10-11T07:49:14.938Z,14.70
2018-10-11T07:59:19.493Z,13.90
2018-10-11T08:09:24.082Z,13.00
2018-10-11T08:19:29.002Z,12.60
2018-10-11T08:29:33.533Z,12.13
2018-10-11T08:39:38.056Z,11.93
2018-10-11T08:49:42.591Z,12.93
2018-10-11T08:59:47.395Z,12.50
2018-10-11T09:09:53.686Z,12.00
2018-10-11T09:19:56.846Z,12.13
2018-10-11T09:30:01.334Z,11.93
2018-10-11T09:40:06.116Z,11.47
2018-10-11T09:50:10.613Z,11.70
2018-10-11T10:00:20.429Z,12.07
2018-10-11T10:10:24.926Z,11.33
2018-10-11T10:20:29.414Z,10.80
2018-10-11T10:31:06.530Z,10.83
2018-10-11T10:41:11.029Z,11.10
2018-10-11T10:51:15.510Z,10.83
2018-10-11T11:01:20.098Z,11.20
2018-10-11T11:11:24.671Z,11.50
2018-10-11T11:21:29.534Z,11.90
2018-10-11T11:31:34.037Z,11.77
2018-10-11T11:41:38.767Z,11.23
2018-10-11T11:51:43.302Z,10.67
2018-10-11T12:01:47.793Z,10.63
2018-10-11T12:11:52.374Z,9.73
2018-10-11T12:21:57.028Z,10.50
2018-10-11T12:32:01.735Z,9.80
2018-10-11T12:42:06.378Z,10.30
2018-10-11T12:52:10.909Z,9.00
2018-10-11T13:02:15.301Z,11.60
2018-10-11T13:12:20.010Z,9.13
2018-10-11T13:22:24.482Z,9.17
2018-10-11T13:32:29.010Z,9.40
2018-10-11T13:42:33.475Z,8.60
2018-10-11T13:52:37.950Z,7.90
2018-10-11T14:02:42.430Z,7.97
2018-10-11T14:12:46.931Z,6.97
2018-10-11T14:22:51.509Z,6.40
2018-10-11T14:32:56.011Z,7.27
2018-10-11T14:43:00.494Z,7.00
2018-10-11T14:53:04.966Z,7.50
2018-10-11T15:03:09.504Z,7.80
2018-10-11T15:13:14.215Z,7.53
2018-10-11T15:23:18.785Z,7.23
2018-10-11T15:33:23.359Z,7.80
2018-10-11T15:43:27.842Z,7.50
2018-10-11T15:53:32.318Z,7.97
2018-10-11T16:03:36.972Z,8.27
2018-10-11T16:13:41.530Z,8.10
2018-10-11T16:23:46.114Z,7.50
2018-10-11T16:33:50.684Z,8.27
2018-10-11T16:43:55.237Z,7.57
2018-10-11T16:53:59.445Z,11.30
2018-10-11T17:04:03.995Z,10.37
2018-10-11T17:14:08.730Z,11.57
2018-10-11T17:24:13.236Z,11.20
2018-10-11T17:34:17.813Z,11.50
2018-10-11T17:44:22.380Z,11.53
2018-10-11T17:54:26.952Z,11.73
2018-10-11T18:04:33.026Z,11.70
2018-10-11T18:14:37.562Z,11.40
2018-10-11T18:24:41.895Z,11.23
2018-10-11T18:34:46.510Z,11.40
2018-10-11T18:44:51.167Z,12.23
2018-10-11T18:54:55.817Z,11.53
2018-10-11T19:05:00.387Z,12.37
2018-10-11T19:15:05.274Z,11.73
2018-10-11T19:25:09.758Z,15.33
2018-10-11T19:35:14.246Z,11.93
2018-10-11T19:45:18.879Z,12.50
2018-10-11T19:55:23.414Z,13.07
2018-10-11T20:05:27.920Z,11.73
2018-10-11T20:15:32.490Z,12.33
2018-10-11T20:25:36.965Z,10.03
2018-10-11T20:35:41.621Z,13.00
2018-10-11T20:45:46.446Z,9.90
2018-10-11T20:55:50.923Z,10.13
2018-10-11T21:05:55.639Z,10.40
2018-10-11T21:16:00.287Z,10.67
2018-10-11T21:26:04.800Z,8.73
2018-10-11T21:36:09.278Z,10.33
2018-10-11T21:46:13.854Z,9.80
2018-10-11T21:56:18.617Z,10.17
2018-10-11T22:06:23.496Z,9.80
2018-10-11T22:16:28.068Z,8.80
2018-10-11T22:26:32.638Z,9.33
2018-10-11T22:36:37.270Z,11.50
2018-10-11T22:46:42.339Z,12.60
2018-10-11T22:56:46.968Z,11.17
2018-10-11T23:06:51.446Z,11.67
2018-10-11T23:16:56.009Z,11.30
2018-10-11T23:27:00.584Z,10.93
2018-10-11T23:37:05.153Z,10.60
2018-10-11T23:47:09.638Z,11.07
2018-10-11T23:57:14.194Z,11.17
